Time;durP1;ratioP1;P1;durP2;ratioP2;P2;SDS_P1;SDS_P2;PMS_P1;PMS_P2;Temp;Humidity;BMP_temperature;BMP_pressure;BME280_temperature;BME280_humidity;BME280_pressure;Samples;Min_cycle;Max_cycle;Signal;HPM_P1;HPM_P2
2021/12/04 00:01:41;;;;;;;25.57;11.45;;;;;;;-1.97;67.85;99578.00;1818196;78;27303;-72
2021/12/04 00:04:08;;;;;;;24.92;10.50;;;;;;;-1.99;67.96;99575.29;1687730;85;25669;-71
2021/12/04 00:06:38;;;;;;;25.37;10.93;;;;;;;-2.05;68.16;99564.36;1670884;85;25686;-71
2021/12/04 00:09:05;;;;;;;24.27;10.80;;;;;;;-2.08;68.19;99561.66;1671363;85;25724;-71
2021/12/04 00:11:35;;;;;;;22.80;10.63;;;;;;;-2.08;68.26;99571.75;1671986;85;25321;-72
2021/12/04 00:14:01;;;;;;;24.47;11.12;;;;;;;-2.11;68.54;99560.31;1672569;85;27520;-71
2021/12/04 00:16:27;;;;;;;25.55;11.35;;;;;;;-2.14;68.65;99566.09;1672877;85;25617;-71
2021/12/04 00:18:54;;;;;;;22.32;11.00;;;;;;;-2.14;68.88;99563.44;1672764;85;25229;-71
2021/12/04 00:21:21;;;;;;;25.37;11.25;;;;;;;-2.16;68.86;99560.73;1672000;85;25669;-71
2021/12/04 00:23:47;;;;;;;24.82;11.03;;;;;;;-2.17;68.93;99564.45;1648738;85;25616;-71
2021/12/04 00:26:14;;;;;;;23.77;10.30;;;;;;;-2.20;69.34;99568.91;1671850;85;27359;-71
2021/12/04 00:28:41;;;;;;;20.57;11.05;;;;;;;-2.20;69.21;99572.88;1688232;84;25758;-71
2021/12/04 00:31:08;;;;;;;21.45;9.60;;;;;;;-2.24;69.13;99565.94;1668702;86;25484;-72
2021/12/04 00:33:38;;;;;;;24.15;10.70;;;;;;;-2.26;69.28;99565.38;1664681;86;26144;-72
2021/12/04 00:36:11;;;;;;;22.80;10.65;;;;;;;-2.28;69.36;99566.95;1677472;85;25617;-71
2021/12/04 00:49:32;;;;;;;25.35;10.80;;;;;;;-2.37;69.85;99566.26;1623031;88;25518;-71
2021/12/04 00:51:59;;;;;;;23.67;10.75;;;;;;;-2.39;69.87;99566.50;1622956;88;27341;-71
2021/12/04 00:54:28;;;;;;;26.57;11.20;;;;;;;-2.40;70.05;99570.20;1622842;88;25605;-71
2021/12/04 00:56:56;;;;;;;22.42;10.60;;;;;;;-2.42;70.03;99556.91;1623150;88;25219;-71
2021/12/04 00:59:23;;;;;;;26.77;11.10;;;;;;;-2.42;70.23;99550.28;1622922;88;25701;-72
2021/12/04 01:01:50;;;;;;;25.08;11.63;;;;;;;-2.41;70.33;99554.55;1623075;86;25543;-72
2021/12/04 01:04:20;;;;;;;21.10;10.32;;;;;;;-2.45;70.31;99544.44;1628060;88;27337;-72
2021/12/04 01:06:48;;;;;;;26.17;11.50;;;;;;;-2.45;70.39;99547.08;1628122;88;25667;-71
2021/12/04 01:09:18;;;;;;;24.50;10.18;;;;;;;-2.44;70.38;99543.91;1627966;88;25682;-71
2021/12/04 01:11:45;;;;;;;24.20;10.53;;;;;;;-2.46;70.33;99545.47;1627848;88;25626;-71
2021/12/04 01:14:17;;;;;;;24.10;11.20;;;;;;;-2.47;70.52;99540.41;1627955;88;25541;-71
2021/12/04 01:16:44;;;;;;;24.20;10.55;;;;;;;-2.46;70.54;99534.88;1605110;88;27796;-71
2021/12/04 01:19:14;;;;;;;20.72;10.93;;;;;;;-2.47;70.63;99533.78;1693679;84;25614;-71
2021/12/04 01:21:40;;;;;;;18.17;9.68;;;;;;;-2.47;70.79;99525.84;1736650;81;25732;-71
2021/12/04 01:24:06;;;;;;;23.77;9.80;;;;;;;-2.47;70.55;99524.52;1737608;82;26375;-71
2021/12/04 01:26:33;;;;;;;18.23;9.75;;;;;;;-2.48;70.66;99527.70;1736446;82;25453;-70
2021/12/04 01:29:00;;;;;;;19.52;9.73;;;;;;;-2.49;70.61;99522.64;1736408;82;27373;-71
2021/12/04 01:31:27;;;;;;;24.57;10.03;;;;;;;-2.49;70.63;99525.28;1736299;82;25542;-71
2021/12/04 01:33:53;;;;;;;20.45;10.30;;;;;;;-2.50;70.79;99518.41;1736355;82;25598;-70
2021/12/04 01:36:20;;;;;;;22.82;10.35;;;;;;;-2.50;70.70;99518.41;1736360;82;25614;-71
2021/12/04 01:38:47;;;;;;;23.30;10.25;;;;;;;-2.52;70.63;99510.70;1736478;82;25591;-70
2021/12/04 01:41:14;;;;;;;22.35;11.30;;;;;;;-2.52;70.66;99508.05;1712108;82;27325;-71
2021/12/04 01:43:41;;;;;;;20.27;9.33;;;;;;;-2.53;70.59;99510.41;1736343;82;25382;-71
2021/12/04 01:46:07;;;;;;;22.45;10.68;;;;;;;-2.52;70.54;99506.73;1737001;82;25625;-71
2021/12/04 01:48:35;;;;;;;24.12;10.93;;;;;;;-2.53;70.50;99501.66;1738136;82;25625;-71
2021/12/04 01:51:02;;;;;;;19.45;10.55;;;;;;;-2.52;70.47;99499.28;1714444;82;25616;-71
2021/12/04 01:53:28;;;;;;;22.17;11.18;;;;;;;-2.52;70.69;99506.73;1738111;82;28125;-71
2021/12/04 01:55:59;;;;;;;22.80;10.60;;;;;;;-2.52;70.51;99504.58;1714674;82;25388;-70
2021/12/04 01:58:28;;;;;;;21.25;10.63;;;;;;;-2.54;70.56;99494.75;1738241;82;25139;-71
2021/12/04 02:00:56;;;;;;;23.92;10.63;;;;;;;-2.52;70.54;99499.28;1738239;82;25662;-71
2021/12/04 02:03:23;;;;;;;21.97;10.28;;;;;;;-2.53;70.56;99505.11;1725245;82;25804;-71
2021/12/04 02:05:50;;;;;;;22.37;11.03;;;;;;;-2.53;70.56;99502.98;1717258;83;27429;-71
2021/12/04 02:08:21;;;;;;;23.70;10.45;;;;;;;-2.53;70.61;99492.40;1717075;83;25387;-71
2021/12/04 02:10:51;;;;;;;24.95;11.73;;;;;;;-2.52;70.69;99501.43;1717355;83;25383;-72
2021/12/04 02:13:19;;;;;;;27.20;11.60;;;;;;;-2.53;70.69;99491.08;1713988;83;26598;-71
2021/12/04 02:15:48;;;;;;;27.80;11.80;;;;;;;-2.55;70.68;99490.52;1714221;83;25528;-71
2021/12/04 02:18:19;;;;;;;24.12;10.72;;;;;;;-2.55;70.60;99491.31;1713970;83;28011;-71
2021/12/04 02:20:46;;;;;;;24.57;11.73;;;;;;;-2.56;70.66;99488.38;1713725;83;25529;-71
2021/12/04 02:23:13;;;;;;;23.77;11.65;;;;;;;-2.57;70.67;99480.66;1713967;83;25600;-71
2021/12/04 02:25:40;;;;;;;26.45;11.22;;;;;;;-2.59;70.66;99474.81;1714002;83;26179;-71
2021/12/04 02:28:09;;;;;;;23.98;11.40;;;;;;;-2.61;70.72;99468.97;1713816;83;25607;-71
2021/12/04 02:30:39;;;;;;;27.73;11.97;;;;;;;-2.64;70.84;99472.38;1691562;83;27424;-71
2021/12/04 02:33:13;;;;;;;27.30;12.73;;;;;;;-2.63;70.86;99464.70;1712792;83;25538;-73
2021/12/04 02:35:50;;;;;;;28.57;12.53;;;;;;;-2.63;70.96;99469.20;1712877;83;25610;-72
2021/12/04 02:38:22;;;;;;;31.42;12.90;;;;;;;-2.66;71.13;99459.89;1712786;83;25707;-72
2021/12/04 02:40:50;;;;;;;24.87;12.40;;;;;;;-2.67;71.13;99464.92;1712854;83;25394;-72
2021/12/04 02:43:17;;;;;;;28.10;12.70;;;;;;;-2.68;71.11;99463.30;1691352;83;27390;-72
2021/12/04 02:45:44;;;;;;;31.05;13.60;;;;;;;-2.67;71.23;99461.48;1712665;83;25437;-72
2021/12/04 02:48:11;;;;;;;36.55;15.20;;;;;;;-2.70;71.23;99456.12;1712744;83;25557;-72
2021/12/04 02:50:39;;;;;;;36.48;13.72;;;;;;;-2.71;71.34;99454.52;1712732;83;25601;-72
2021/12/04 02:53:05;;;;;;;26.70;13.70;;;;;;;-2.73;71.41;99447.34;1712793;83;25448;-72
2021/12/04 02:55:32;;;;;;;33.53;14.40;;;;;;;-2.73;71.57;99450.52;1692227;83;27215;-72
2021/12/04 02:57:59;;;;;;;32.50;14.05;;;;;;;-2.75;71.56;99449.97;1712667;83;25555;-72
2021/12/04 03:00:27;;;;;;;30.10;14.93;;;;;;;-2.77;71.64;99440.94;1712731;83;25499;-71
2021/12/04 03:02:56;;;;;;;36.08;16.70;;;;;;;-2.77;71.70;99438.82;1716210;82;25612;-71
2021/12/04 03:05:26;;;;;;;33.70;15.45;;;;;;;-2.78;71.87;99433.23;1731084;82;25398;-71
2021/12/04 03:07:58;;;;;;;38.17;15.45;;;;;;;-2.78;72.05;99443.30;1730886;82;27855;-71
2021/12/04 03:10:26;;;;;;;34.48;15.85;;;;;;;-2.79;71.90;99441.70;1730749;82;25559;-71
2021/12/04 03:12:53;;;;;;;30.23;14.58;;;;;;;-2.79;72.29;99444.86;1730777;82;25363;-71
2021/12/04 03:15:21;;;;;;;34.48;15.50;;;;;;;-2.78;72.08;99435.36;1730732;82;25798;-71
2021/12/04 03:17:49;;;;;;;33.53;16.12;;;;;;;-2.78;72.25;99440.65;1730823;82;25604;-71
2021/12/04 03:20:16;;;;;;;37.23;17.10;;;;;;;-2.78;72.31;99435.36;1730780;82;27311;-71
2021/12/04 03:22:44;;;;;;;37.93;15.88;;;;;;;-2.78;72.37;99430.06;1730707;82;25612;-71
2021/12/04 03:25:14;;;;;;;40.50;15.85;;;;;;;-2.77;72.44;99433.00;1730796;82;25588;-71
2021/12/04 03:27:45;;;;;;;38.58;16.50;;;;;;;-2.75;72.63;99422.96;1730800;82;25753;-71
2021/12/04 03:30:19;;;;;;;39.83;17.37;;;;;;;-2.73;72.49;99426.70;1730224;82;25563;-71
2021/12/04 03:35:22;;;;;;;34.13;16.12;;;;;;;-2.72;72.56;99417.19;1730684;82;25390;-71
2021/12/04 03:40:51;;;;;;;37.93;18.23;;;;;;;-2.69;72.77;99410.59;1705597;82;25695;-70
2021/12/04 03:43:09;;;;;;;34.38;17.32;;;;;;;-2.70;72.72;99408.48;1727702;82;25402;-70
2021/12/04 03:45:39;;;;;;;31.95;13.65;;;;;;;-2.67;72.66;99411.17;1730903;82;27290;-71
2021/12/04 03:48:17;;;;;;;41.25;18.87;;;;;;;-2.66;72.88;99405.61;1730747;82;25539;-71
2021/12/04 03:50:38;;;;;;;34.80;17.90;;;;;;;-2.66;72.82;99401.64;1729741;82;25754;-70
2021/12/04 03:53:05;;;;;;;40.17;17.95;;;;;;;-2.65;72.91;99393.20;1730920;82;25675;-70
2021/12/04 03:55:32;;;;;;;42.58;19.23;;;;;;;-2.64;72.82;99394.28;1730905;82;25559;-70
2021/12/04 03:57:59;;;;;;;36.15;17.27;;;;;;;-2.61;72.86;99398.80;1705720;82;27147;-72
2021/12/04 04:00:28;;;;;;;37.17;16.60;;;;;;;-2.63;72.90;99385.80;1705683;82;25615;-72
2021/12/04 04:02:55;;;;;;;38.23;17.80;;;;;;;-2.63;72.90;99377.86;1730632;82;25601;-71
2021/12/04 04:05:21;;;;;;;34.23;17.17;;;;;;;-2.63;72.90;99384.48;1730921;82;25681;-71
2021/12/04 04:07:48;;;;;;;41.40;18.42;;;;;;;-2.62;72.85;99374.18;1730946;82;25555;-71
2021/12/04 04:10:14;;;;;;;34.48;16.73;;;;;;;-2.63;72.89;99366.73;1730941;82;27358;-71
2021/12/04 04:12:41;;;;;;;34.83;17.77;;;;;;;-2.60;73.01;99367.32;1730846;82;25704;-71
2021/12/04 04:15:08;;;;;;;37.48;17.37;;;;;;;-2.60;72.80;99360.70;1730880;82;25623;-71
2021/12/04 04:17:42;;;;;;;37.50;16.80;;;;;;;-2.60;72.80;99364.67;1730882;82;25558;-71
2021/12/04 04:20:04;;;;;;;34.23;16.67;;;;;;;-2.58;72.85;99359.39;1730067;82;25448;-71
2021/12/04 04:22:30;;;;;;;33.48;15.78;;;;;;;-2.58;72.83;99356.75;1730225;82;27326;-71
2021/12/04 04:24:57;;;;;;;36.85;17.60;;;;;;;-2.57;72.88;99362.84;1730831;82;25444;-71
2021/12/04 04:27:23;;;;;;;34.40;16.67;;;;;;;-2.56;72.88;99349.89;1730918;82;25445;-71
2021/12/04 04:29:50;;;;;;;43.58;18.65;;;;;;;-2.55;72.78;99347.53;1730883;82;25591;-71
2021/12/04 04:32:17;;;;;;;34.10;15.95;;;;;;;-2.55;72.88;99341.70;1730958;82;25607;-71
2021/12/04 04:34:50;;;;;;;34.85;18.15;;;;;;;-2.53;72.97;99341.45;1730855;82;26923;-71
2021/12/04 04:37:36;;;;;;;31.70;16.27;;;;;;;-2.51;72.90;99345.98;1730144;82;25511;-71
2021/12/04 04:40:30;;;;;;;36.42;16.50;;;;;;;-2.52;72.95;99340.39;1728414;82;25605;-72
2021/12/04 04:57:36;;;;;;;36.05;16.55;;;;;;;-2.49;72.96;99328.78;1730957;82;25541;-72
2021/12/04 05:15:53;;;;;;;31.68;15.80;;;;;;;-2.33;73.13;99329.78;1712812;83;28366;-72
2021/12/04 05:18:16;;;;;;;35.13;15.85;;;;;;;-2.30;73.08;99324.00;1710300;83;25581;-71
2021/12/04 05:20:38;;;;;;;32.25;15.25;;;;;;;-2.29;73.08;99326.91;1690897;83;25636;-71
2021/12/04 05:23:10;;;;;;;35.30;16.03;;;;;;;-2.27;73.06;99322.16;1713025;83;26258;-71
2021/12/04 05:25:38;;;;;;;32.95;15.75;;;;;;;-2.25;73.03;99317.94;1692360;83;25502;-71
2021/12/04 05:28:07;;;;;;;33.40;14.73;;;;;;;-2.24;72.99;99316.90;1712779;83;27498;-71
2021/12/04 05:30:35;;;;;;;24.67;11.33;;;;;;;-2.22;72.96;99322.74;1712837;83;25715;-71
2021/12/04 05:33:02;;;;;;;31.40;15.20;;;;;;;-2.21;72.96;99312.44;1712791;83;25554;-71
2021/12/04 05:35:29;;;;;;;32.55;16.07;;;;;;;-2.19;72.99;99326.77;1712712;83;25708;-71
2021/12/04 05:37:56;;;;;;;30.27;14.80;;;;;;;-2.18;72.97;99319.89;1712797;83;25633;-71
2021/12/04 05:40:23;;;;;;;28.95;13.80;;;;;;;-2.16;72.95;99307.19;1712785;83;27370;-71
2021/12/04 05:42:50;;;;;;;34.92;15.50;;;;;;;-2.14;72.90;99304.30;1712578;83;25574;-71
2021/12/04 05:45:25;;;;;;;33.23;15.08;;;;;;;-2.12;72.97;99304.30;1712763;83;25376;-71
2021/12/04 05:53:23;;;;;;;30.72;13.60;;;;;;;-2.07;72.90;99306.22;1712873;83;28020;-71
2021/12/04 05:55:53;;;;;;;26.30;13.65;;;;;;;-2.06;72.85;99294.55;1691581;83;25494;-71
2021/12/04 05:58:32;;;;;;;27.27;13.75;;;;;;;-2.05;72.77;99294.84;1712821;83;25619;-71
2021/12/04 06:01:05;;;;;;;31.85;14.38;;;;;;;-2.03;72.77;99283.98;1712931;83;25675;-71
2021/12/04 06:03:33;;;;;;;35.10;14.28;;;;;;;-2.02;72.74;99284.27;1712560;82;25412;-71
2021/12/04 06:06:00;;;;;;;27.45;14.47;;;;;;;-2.00;72.72;99282.17;1712825;83;27382;-71
2021/12/04 06:08:27;;;;;;;28.55;13.83;;;;;;;-1.99;72.62;99285.08;1712777;83;25529;-72
2021/12/04 06:10:54;;;;;;;31.37;14.35;;;;;;;-1.98;72.62;99282.71;1712797;83;25359;-72
2021/12/04 06:13:22;;;;;;;30.75;14.50;;;;;;;-1.96;72.60;99277.95;1712757;83;25781;-71
2021/12/04 06:15:51;;;;;;;29.95;15.15;;;;;;;-1.96;72.60;99284.58;1712782;83;25580;-72
2021/12/04 06:18:18;;;;;;;32.13;14.03;;;;;;;-1.95;72.56;99280.89;1712890;83;28010;-71
2021/12/04 06:23:32;;;;;;;33.65;14.60;;;;;;;-1.95;72.54;99292.28;1712857;83;25474;-72
2021/12/04 06:26:00;;;;;;;35.87;15.07;;;;;;;-1.92;72.50;99289.14;1713121;83;25677;-72
2021/12/04 06:28:28;;;;;;;37.03;15.00;;;;;;;-1.91;72.48;99288.09;1712868;83;25552;-72
2021/12/04 06:30:55;;;;;;;26.55;13.62;;;;;;;-1.89;72.39;99287.31;1712796;83;27302;-72
2021/12/04 06:33:22;;;;;;;27.87;13.32;;;;;;;-1.88;72.44;99287.57;1712748;83;25656;-72
2021/12/04 06:35:49;;;;;;;27.42;13.35;;;;;;;-1.84;72.40;99292.37;1712743;83;25433;-72
2021/12/04 06:38:19;;;;;;;28.52;13.08;;;;;;;-1.82;72.26;99305.67;1712764;83;25620;-72
2021/12/04 06:40:47;;;;;;;29.00;12.95;;;;;;;-1.81;72.29;99293.20;1712900;83;25622;-72
2021/12/04 06:43:15;;;;;;;29.52;13.43;;;;;;;-1.77;72.19;99294.29;1712763;83;27406;-72
2021/12/04 06:45:44;;;;;;;25.25;13.15;;;;;;;-1.76;72.11;99298.02;1712698;83;25443;-72
2021/12/04 06:48:16;;;;;;;30.30;12.37;;;;;;;-1.73;72.23;99302.03;1712937;83;25623;-72
2021/12/04 06:53:19;;;;;;;26.25;12.68;;;;;;;-1.67;72.08;99310.29;1712801;83;25525;-72
2021/12/04 06:55:45;;;;;;;30.52;12.85;;;;;;;-1.65;71.99;99302.91;1711831;83;27985;-72
2021/12/04 06:58:09;;;;;;;24.60;12.82;;;;;;;-1.61;72.02;99301.33;1712497;83;25525;-72
2021/12/04 07:00:36;;;;;;;27.05;12.58;;;;;;;-1.60;71.92;99297.64;1712757;83;25431;-73
2021/12/04 07:03:03;;;;;;;30.95;13.03;;;;;;;-1.57;71.90;99303.74;1712727;83;25632;-72
2021/12/04 07:05:30;;;;;;;26.68;12.03;;;;;;;-1.55;71.81;99303.49;1712743;83;25426;-72
2021/12/04 07:07:57;;;;;;;29.23;13.48;;;;;;;-1.53;71.86;99304.86;1712733;83;27561;-72
2021/12/04 07:10:24;;;;;;;25.65;13.38;;;;;;;-1.52;71.71;99302.45;1712650;83;25434;-72
2021/12/04 07:12:50;;;;;;;30.50;14.45;;;;;;;-1.48;71.73;99300.63;1712738;83;25619;-72
2021/12/04 07:15:17;;;;;;;29.37;13.75;;;;;;;-1.45;71.68;99300.13;1712659;83;25636;-72
2021/12/04 07:17:44;;;;;;;26.35;13.48;;;;;;;-1.45;71.58;99298.80;1712773;83;25394;-72
2021/12/04 07:20:12;;;;;;;33.42;13.65;;;;;;;-1.45;71.39;99299.59;1712747;83;27444;-72
2021/12/04 07:22:39;;;;;;;26.42;13.18;;;;;;;-1.45;71.44;99305.44;1691046;83;25652;-72
2021/12/04 07:25:06;;;;;;;24.70;12.65;;;;;;;-1.44;71.51;99300.41;1712946;83;25769;-73
2021/12/04 07:27:34;;;;;;;25.68;12.75;;;;;;;-1.43;71.47;99304.65;1712843;83;26138;-72
2021/12/04 07:30:01;;;;;;;26.60;13.88;;;;;;;-1.41;71.47;99299.91;1712903;83;25507;-72
2021/12/04 07:32:27;;;;;;;25.08;13.28;;;;;;;-1.39;71.61;99307.87;1692627;83;28010;-72
2021/12/04 07:34:54;;;;;;;27.17;13.83;;;;;;;-1.38;71.55;99308.16;1712812;83;25427;-71
2021/12/04 07:37:22;;;;;;;24.00;13.38;;;;;;;-1.34;71.59;99307.91;1712920;83;25628;-73
2021/12/04 07:39:50;;;;;;;28.50;13.48;;;;;;;-1.32;71.48;99303.15;1712835;83;26260;-71
2021/12/04 07:42:16;;;;;;;27.77;13.22;;;;;;;-1.29;71.48;99299.20;1712938;83;25547;-70
2021/12/04 07:44:43;;;;;;;22.27;12.80;;;;;;;-1.24;71.50;99305.05;1712911;83;27374;-71
2021/12/04 07:47:10;;;;;;;27.02;14.15;;;;;;;-1.23;71.40;99292.86;1712823;83;25535;-71
2021/12/04 07:49:38;;;;;;;24.10;11.80;;;;;;;-1.18;71.49;99287.58;1692737;83;25650;-72
2021/12/04 07:52:08;;;;;;;27.05;13.55;;;;;;;-1.14;71.45;99292.66;1712927;83;25615;-72
2021/12/04 07:54:36;;;;;;;26.27;13.58;;;;;;;-1.09;71.46;99296.39;1712820;83;25453;-72
2021/12/04 07:57:04;;;;;;;25.23;12.37;;;;;;;-1.05;71.33;99290.33;1712876;83;27309;-71
2021/12/04 07:59:30;;;;;;;21.70;12.33;;;;;;;-1.02;71.30;99291.14;1691238;83;25630;-72
2021/12/04 08:01:58;;;;;;;26.85;13.25;;;;;;;-0.99;71.07;99295.95;1712874;83;25480;-71
2021/12/04 08:04:27;;;;;;;25.90;12.88;;;;;;;-0.98;71.07;99304.17;1714148;82;25743;-71
2021/12/04 08:06:54;;;;;;;26.48;13.08;;;;;;;-0.95;71.18;99301.55;1715287;82;25623;-71
2021/12/04 08:09:22;;;;;;;26.82;13.38;;;;;;;-0.93;71.19;99296.77;1712847;83;27365;-71
2021/12/04 08:11:50;;;;;;;27.22;12.88;;;;;;;-0.89;70.88;99302.36;1712678;83;25242;-71
2021/12/04 08:14:20;;;;;;;31.68;14.25;;;;;;;-0.88;70.94;99296.00;1712875;83;25410;-71
2021/12/04 08:16:47;;;;;;;31.73;13.95;;;;;;;-0.86;70.82;99292.55;1712818;83;26284;-72
2021/12/04 08:19:14;;;;;;;25.92;13.10;;;;;;;-0.84;70.90;99295.75;1712903;83;25390;-72
2021/12/04 08:21:40;;;;;;;30.35;14.07;;;;;;;-0.82;70.79;99289.64;1712893;83;27320;-72
2021/12/04 08:24:08;;;;;;;32.88;13.88;;;;;;;-0.80;70.95;99283.03;1712816;83;25410;-72
2021/12/04 08:26:37;;;;;;;26.23;14.05;;;;;;;-0.75;70.74;99288.88;1692284;83;25457;-71
2021/12/04 08:29:06;;;;;;;27.02;14.10;;;;;;;-0.72;70.84;99291.56;1712963;83;25623;-72
2021/12/04 08:31:34;;;;;;;29.48;14.23;;;;;;;-0.72;70.66;99287.04;1712911;83;25564;-71
2021/12/04 08:34:01;;;;;;;28.30;14.00;;;;;;;-0.70;70.65;99288.90;1712816;83;28072;-72
2021/12/04 08:36:28;;;;;;;34.23;14.63;;;;;;;-0.67;70.76;99292.91;1712726;83;25585;-71
2021/12/04 08:38:55;;;;;;;26.50;13.80;;;;;;;-0.66;70.85;99281.23;1712851;83;25578;-72
2021/12/04 08:41:22;;;;;;;24.47;13.25;;;;;;;-0.64;70.95;99289.74;1712868;83;25732;-72
2021/12/04 08:43:48;;;;;;;37.53;13.98;;;;;;;-0.61;71.23;99283.92;1712887;83;25580;-71
2021/12/04 08:46:20;;;;;;;27.85;13.45;;;;;;;-0.62;71.09;99279.11;1712881;83;27317;-71
2021/12/04 08:48:47;;;;;;;25.43;12.33;;;;;;;-0.60;71.17;99284.17;1690949;83;25649;-72
2021/12/04 08:51:13;;;;;;;26.70;13.40;;;;;;;-0.59;71.28;99282.59;1712348;83;26314;-72
2021/12/04 08:53:42;;;;;;;26.00;13.20;;;;;;;-0.59;71.32;99275.94;1713373;83;25683;-72
2021/12/04 08:56:09;;;;;;;23.18;12.15;;;;;;;-0.53;71.49;99272.77;1714027;83;25452;-72
2021/12/04 08:58:39;;;;;;;29.45;13.72;;;;;;;-0.52;71.34;99273.05;1713670;83;27491;-72
2021/12/04 09:01:11;;;;;;;27.77;12.73;;;;;;;-0.50;71.33;99270.14;1713867;83;25422;-72
2021/12/04 09:03:42;;;;;;;25.82;12.40;;;;;;;-0.44;71.57;99273.09;1713314;83;25501;-73
2021/12/04 09:06:09;;;;;;;24.77;12.93;;;;;;;-0.40;71.54;99271.50;1720224;81;25623;-72
2021/12/04 09:08:37;;;;;;;24.63;11.68;;;;;;;-0.38;71.54;99272.03;1730102;82;25558;-72
2021/12/04 09:11:16;;;;;;;24.72;12.33;;;;;;;-0.37;71.80;99268.33;1728496;82;27430;-72
2021/12/04 09:13:42;;;;;;;21.73;11.60;;;;;;;-0.34;72.12;99261.16;1726875;82;26525;-72
2021/12/04 09:16:10;;;;;;;21.75;11.83;;;;;;;-0.30;72.42;99260.89;1725210;83;25207;-72
2021/12/04 09:18:37;;;;;;;23.80;11.93;;;;;;;-0.28;72.38;99252.66;1699966;83;25692;-72
2021/12/04 09:21:05;;;;;;;21.75;11.30;;;;;;;-0.26;72.52;99258.51;1725245;83;25445;-72
2021/12/04 09:23:36;;;;;;;20.80;11.37;;;;;;;-0.23;72.62;99252.67;1727319;82;27335;-72
2021/12/04 09:26:03;;;;;;;25.55;10.93;;;;;;;-0.20;72.67;99248.17;1728614;82;25872;-70
2021/12/04 10:12:30;;;;;;;16.10;8.78;;;;;;;0.20;72.03;99234.62;1663039;84;25738;-67
2021/12/04 10:33:51;;;;;;;20.10;10.43;;;;;;;-0.13;76.43;99220.80;1581920;90;25482;-68
2021/12/04 10:36:31;;;;;;;16.40;9.90;;;;;;;-0.13;77.20;99227.98;1575646;90;25682;-68
2021/12/04 10:38:59;;;;;;;15.45;9.65;;;;;;;-0.13;77.15;99217.34;1574581;90;26339;-69
2021/12/04 10:41:36;;;;;;;17.05;10.20;;;;;;;-0.14;77.62;99208.55;1544266;92;25683;-69
2021/12/04 10:44:20;;;;;;;17.48;9.68;;;;;;;-0.14;77.91;99205.89;1565246;90;27590;-69
2021/12/04 10:47:05;;;;;;;18.23;10.10;;;;;;;-0.12;77.75;99210.44;1570630;90;25793;-69
2021/12/04 10:49:54;;;;;;;18.30;9.88;;;;;;;-0.07;77.92;99200.31;1579848;90;25641;-69
2021/12/04 10:52:54;;;;;;;16.10;9.50;;;;;;;0.00;78.51;99202.20;1610685;87;25817;-69
2021/12/04 10:55:14;;;;;;;18.52;10.53;;;;;;;0.04;78.06;99195.28;1631985;87;25837;-70
2021/12/04 11:22:35;;;;;;;18.20;9.45;;;;;;;0.46;74.87;99162.78;1606705;88;26382;-70
2021/12/04 11:25:29;;;;;;;18.40;9.63;;;;;;;0.48;74.56;99161.45;1583046;89;29115;-69
2021/12/04 11:38:21;;;;;;;14.80;8.05;;;;;;;0.70;72.81;99153.69;1550793;92;27203;-69
2021/12/04 11:43:26;;;;;;;15.40;8.58;;;;;;;0.79;73.05;99145.39;1522838;92;25531;-69
2021/12/04 11:48:32;;;;;;;16.82;8.38;;;;;;;0.91;72.62;99149.87;1601148;89;25494;-69
2021/12/04 11:51:01;;;;;;;18.15;8.75;;;;;;;0.96;71.44;99154.92;1601824;89;26602;-69
2021/12/04 11:53:33;;;;;;;16.25;8.73;;;;;;;1.01;71.69;99156.23;1586317;89;25828;-70
2021/12/04 11:56:00;;;;;;;15.55;8.03;;;;;;;1.04;71.08;99152.49;1566216;90;25766;-70
2021/12/04 11:58:34;;;;;;;15.03;8.40;;;;;;;1.11;71.22;99157.52;1590495;89;25826;-66
2021/12/04 12:01:04;;;;;;;16.67;8.83;;;;;;;1.15;71.44;99151.89;1557609;90;25847;-68
2021/12/04 12:03:35;;;;;;;16.75;9.68;;;;;;;1.24;70.78;99155.59;1572260;90;29805;-68
2021/12/04 12:06:06;;;;;;;19.45;9.05;;;;;;;1.29;70.54;99150.75;1587866;89;25717;-69
2021/12/04 12:08:43;;;;;;;18.05;9.23;;;;;;;1.33;70.43;99141.67;1652674;85;25735;-68
2021/12/04 12:11:27;;;;;;;16.62;9.03;;;;;;;1.36;69.98;99143.24;1653055;85;25726;-68
2021/12/04 12:14:10;;;;;;;17.73;9.45;;;;;;;1.39;69.46;99141.37;1619202;88;25925;-68
2021/12/04 12:16:50;;;;;;;18.57;8.93;;;;;;;1.42;69.49;99134.16;1619057;88;27365;-68
2021/12/04 12:19:31;;;;;;;17.42;9.03;;;;;;;1.42;69.15;99135.48;1645655;84;25748;-69
2021/12/04 12:22:09;;;;;;;16.17;9.18;;;;;;;1.44;68.67;99130.67;1690311;83;25730;-69
2021/12/04 12:27:25;;;;;;;15.55;8.83;;;;;;;1.45;68.92;99140.27;1688683;84;26267;-69
2021/12/04 12:33:18;;;;;;;14.83;8.40;;;;;;;1.48;68.31;99141.58;1688535;85;27125;-69
2021/12/04 12:36:03;;;;;;;19.25;9.90;;;;;;;1.47;67.90;99150.11;1688007;84;25712;-69
2021/12/04 12:38:38;;;;;;;19.27;9.08;;;;;;;1.47;68.24;99144.00;1688542;84;26224;-69
2021/12/04 12:41:37;;;;;;;18.73;8.85;;;;;;;1.46;67.57;99140.55;1688567;85;25740;-68
2021/12/04 12:44:21;;;;;;;16.25;9.30;;;;;;;1.46;67.69;99141.06;1667808;85;27275;-68
2021/12/04 12:47:02;;;;;;;16.15;8.95;;;;;;;1.41;67.76;99134.43;1688235;84;25928;-68
2021/12/04 12:49:40;;;;;;;22.30;9.88;;;;;;;1.42;67.51;99138.16;1666596;85;25554;-69
2021/12/04 12:52:15;;;;;;;14.98;10.32;;;;;;;1.42;67.58;99136.03;1687648;84;26167;-68
2021/12/04 12:54:58;;;;;;;19.32;10.48;;;;;;;1.38;67.37;99131.80;1688640;85;25649;-68
2021/12/04 12:57:30;;;;;;;18.65;9.68;;;;;;;1.40;67.30;99144.84;1688476;85;27919;-68
2021/12/04 13:11:58;;;;;;;15.63;9.65;;;;;;;1.34;66.88;99132.07;1731517;82;27956;-68
2021/12/04 13:14:32;;;;;;;20.62;10.03;;;;;;;1.33;66.31;99132.34;1728322;82;25654;-68
2021/12/04 13:17:09;;;;;;;19.05;9.85;;;;;;;1.30;66.82;99131.05;1699811;83;25508;-68
2021/12/04 13:19:41;;;;;;;21.27;10.23;;;;;;;1.29;66.68;99132.11;1729937;82;26233;-68
2021/12/04 13:22:17;;;;;;;17.12;9.90;;;;;;;1.27;66.64;99133.70;1727495;82;25534;-69
2021/12/04 13:24:47;;;;;;;16.15;9.33;;;;;;;1.27;66.75;99125.72;1729152;82;27322;-69
2021/12/04 13:29:50;;;;;;;18.20;9.98;;;;;;;1.25;66.84;99131.86;1726748;82;25877;-69
2021/12/04 13:32:20;;;;;;;17.35;10.50;;;;;;;1.24;66.51;99124.14;1712306;82;26431;-69
2021/12/04 13:34:47;;;;;;;20.15;10.75;;;;;;;1.24;66.40;99124.96;1733024;82;25633;-68
2021/12/04 13:37:14;;;;;;;19.57;10.15;;;;;;;1.21;66.17;99124.17;1732712;82;28228;-68
2021/12/04 13:39:42;;;;;;;20.10;10.50;;;;;;;1.18;66.67;99132.70;1726595;82;25697;-68
2021/12/04 13:42:10;;;;;;;19.10;10.10;;;;;;;1.18;66.89;99126.59;1732764;82;25675;-68
2021/12/04 13:44:37;;;;;;;19.62;10.63;;;;;;;1.16;67.37;99127.38;1732751;82;25786;-68
2021/12/04 13:47:08;;;;;;;16.27;10.08;;;;;;;1.13;67.63;99126.08;1727948;82;25723;-69
2021/12/04 13:49:53;;;;;;;19.60;10.50;;;;;;;1.09;68.11;99121.02;1699801;84;27545;-69
2021/12/04 13:52:13;;;;;;;18.45;9.85;;;;;;;1.05;68.71;99127.43;1681908;85;25657;-69
2021/12/04 13:54:47;;;;;;;19.85;11.00;;;;;;;1.03;68.91;99133.58;1676207;85;25736;-68
2021/12/04 13:57:16;;;;;;;18.07;10.90;;;;;;;0.98;69.66;99133.59;1704818;83;25613;-68
2021/12/04 13:59:44;;;;;;;18.27;10.23;;;;;;;0.92;70.03;99142.16;1699716;84;25754;-68
2021/12/04 14:02:23;;;;;;;18.52;11.03;;;;;;;0.88;70.60;99140.30;1707338;83;27437;-68
2021/12/04 14:05:13;;;;;;;21.70;10.73;;;;;;;0.84;70.97;99133.94;1704703;83;25723;-68
2021/12/04 14:07:53;;;;;;;19.30;10.20;;;;;;;0.82;71.18;99133.39;1676531;84;25615;-67
2021/12/04 14:10:26;;;;;;;17.30;10.35;;;;;;;0.76;72.24;99139.83;1724164;83;27800;-68
2021/12/04 14:12:54;;;;;;;18.92;10.58;;;;;;;0.70;72.44;99145.70;1724757;83;25638;-68
2021/12/04 14:15:22;;;;;;;19.35;10.53;;;;;;;0.63;73.74;99139.34;1725014;83;27403;-68
2021/12/04 14:17:53;;;;;;;19.80;11.10;;;;;;;0.57;73.92;99149.73;1724794;83;25751;-69
2021/12/04 14:20:23;;;;;;;20.85;12.55;;;;;;;0.51;74.08;99145.47;1724748;83;25709;-69
2021/12/04 14:22:54;;;;;;;21.50;10.88;;;;;;;0.47;74.12;99143.10;1724858;82;26286;-69
2021/12/04 14:25:23;;;;;;;21.77;11.30;;;;;;;0.45;74.42;99143.91;1724852;83;25534;-70
2021/12/04 14:27:51;;;;;;;;;;;;;;;0.41;74.34;99147.64;1727391;83;27395;-69
2021/12/04 14:30:32;;;;;;;18.85;10.35;;;;;;;0.35;74.86;99142.84;1724815;83;25607;-70
2021/12/04 14:33:03;;;;;;;20.90;11.15;;;;;;;0.32;75.42;99147.40;1724866;83;25613;-69
2021/12/04 14:35:37;;;;;;;23.73;11.08;;;;;;;0.28;75.54;99145.53;1748863;81;25704;-69